Time;durP1;ratioP1;P1;durP2;ratioP2;P2;SDS_P1;SDS_P2;PMS_P1;PMS_P2;Temp;Humidity;BMP_temperature;BMP_pressure;BME280_temperature;BME280_humidity;BME280_pressure;Samples;Min_cycle;Max_cycle;Signal;HPM_P1;HPM_P2
2024/01/19 00:01:29;;;;;;;2.60;1.38;;;;;;;;;;5049547;28;20056;-91
2024/01/19 00:03:59;;;;;;;5.55;1.30;;;;;;;;;;5018930;28;20045;-92
2024/01/19 00:06:31;;;;;;;3.55;1.23;;;;;;;;;;5015387;28;20065;-90
2024/01/19 00:09:05;;;;;;;4.90;1.30;;;;;;;;;;5024076;28;20063;-90
2024/01/19 00:11:36;;;;;;;4.22;1.10;;;;;;;;;;5034900;28;20499;-88
2024/01/19 00:14:06;;;;;;;2.70;0.98;;;;;;;;;;5029917;28;20074;-78
2024/01/19 00:16:41;;;;;;;2.30;1.20;;;;;;;;;;5056505;28;20480;-78
2024/01/19 00:19:12;;;;;;;4.97;1.20;;;;;;;;;;5072192;28;20064;-77
2024/01/19 00:21:46;;;;;;;3.15;1.15;;;;;;;;;;5072173;28;20045;-76
2024/01/19 00:24:19;;;;;;;4.05;1.30;;;;;;;;;;5054772;28;20503;-78
2024/01/19 00:26:50;;;;;;;2.90;1.27;;;;;;;;;;5053799;28;20045;-78
2024/01/19 00:29:21;;;;;;;3.92;1.20;;;;;;;;;;5072089;28;20057;-78
2024/01/19 00:31:51;;;;;;;5.75;1.15;;;;;;;;;;5054420;28;20040;-78
2024/01/19 00:34:22;;;;;;;3.00;1.35;;;;;;;;;;5039184;28;20079;-78
2024/01/19 00:36:52;;;;;;;2.72;1.25;;;;;;;;;;5052096;28;20053;-78
2024/01/19 00:39:22;;;;;;;2.25;1.02;;;;;;;;;;5051592;28;20509;-78
2024/01/19 00:41:53;;;;;;;2.25;0.95;;;;;;;;;;5051760;28;20495;-78
2024/01/19 00:44:24;;;;;;;3.80;1.38;;;;;;;;;;5033913;28;20506;-78
2024/01/19 00:46:55;;;;;;;5.28;1.20;;;;;;;;;;5044644;28;20048;-78
2024/01/19 00:49:28;;;;;;;4.55;1.20;;;;;;;;;;5069825;28;20380;-78
2024/01/19 00:51:58;;;;;;;3.85;1.20;;;;;;;;;;5032311;28;20395;-78
2024/01/19 00:54:29;;;;;;;6.68;1.30;;;;;;;;;;5033676;28;20053;-78
2024/01/19 00:57:00;;;;;;;4.95;1.13;;;;;;;;;;5050989;28;20620;-78
2024/01/19 00:59:30;;;;;;;3.70;1.13;;;;;;;;;;5045268;28;20036;-79
2024/01/19 01:02:00;;;;;;;3.17;1.23;;;;;;;;;;5091525;28;20051;-78
2024/01/19 01:04:31;;;;;;;5.65;1.20;;;;;;;;;;5091836;28;20060;-79
2024/01/19 01:07:03;;;;;;;4.78;1.38;;;;;;;;;;5090756;28;20047;-78
2024/01/19 01:09:35;;;;;;;4.07;1.00;;;;;;;;;;5054860;28;20052;-77
2024/01/19 01:12:05;;;;;;;;;;;;;;;;;;5091194;28;20079;-79
2024/01/19 01:14:35;;;;;;;3.97;1.08;;;;;;;;;;5091315;28;20409;-78
2024/01/19 01:17:06;;;;;;;4.72;1.10;;;;;;;;;;5104662;28;20513;-78
2024/01/19 01:19:36;;;;;;;3.42;1.17;;;;;;;;;;5103277;28;20032;-78
2024/01/19 01:22:08;;;;;;;3.90;1.33;;;;;;;;;;5103172;28;20051;-78
2024/01/19 01:24:39;;;;;;;5.78;1.02;;;;;;;;;;5103546;28;20040;-78
2024/01/19 01:27:09;;;;;;;3.83;1.50;;;;;;;;;;5086423;28;20059;-78
2024/01/19 01:29:40;;;;;;;1.90;1.10;;;;;;;;;;5098158;28;20489;-78
2024/01/19 01:32:11;;;;;;;3.03;1.02;;;;;;;;;;5081221;28;20052;-78
2024/01/19 01:34:41;;;;;;;4.47;1.30;;;;;;;;;;5086772;28;20065;-78
2024/01/19 01:37:11;;;;;;;3.63;1.02;;;;;;;;;;5093557;28;20055;-78
2024/01/19 01:39:40;;;;;;;5.60;1.08;;;;;;;;;;5111846;28;20055;-78
2024/01/19 01:42:11;;;;;;;4.03;1.35;;;;;;;;;;5075395;28;20055;-77
2024/01/19 01:44:42;;;;;;;3.38;1.10;;;;;;;;;;5091395;28;20048;-78
2024/01/19 01:47:13;;;;;;;2.65;1.17;;;;;;;;;;5091352;28;20398;-78
2024/01/19 01:49:43;;;;;;;3.67;1.40;;;;;;;;;;5091435;28;20051;-78
2024/01/19 01:52:13;;;;;;;2.63;0.90;;;;;;;;;;5070556;28;20048;-78
2024/01/19 01:54:44;;;;;;;3.10;1.15;;;;;;;;;;5091031;28;20062;-78
2024/01/19 01:57:19;;;;;;;5.90;1.00;;;;;;;;;;5090426;28;20387;-78
2024/01/19 01:59:49;;;;;;;2.92;1.02;;;;;;;;;;5090580;28;20052;-78
2024/01/19 02:02:20;;;;;;;1.73;1.02;;;;;;;;;;5090737;28;20052;-78
2024/01/19 02:04:51;;;;;;;4.93;1.35;;;;;;;;;;5090569;28;20517;-77
2024/01/19 02:07:22;;;;;;;2.42;1.15;;;;;;;;;;5090497;28;20051;-78
2024/01/19 02:09:52;;;;;;;3.22;1.23;;;;;;;;;;5090184;28;20043;-78
2024/01/19 02:12:23;;;;;;;2.42;1.05;;;;;;;;;;5097745;28;20433;-78
2024/01/19 02:14:56;;;;;;;3.20;1.02;;;;;;;;;;5098095;28;20412;-78
2024/01/19 02:17:27;;;;;;;4.40;1.15;;;;;;;;;;5098944;28;20056;-78
2024/01/19 02:19:57;;;;;;;3.72;1.20;;;;;;;;;;5086773;28;20048;-78
2024/01/19 02:22:29;;;;;;;2.05;1.20;;;;;;;;;;5097973;28;20047;-78
2024/01/19 02:25:00;;;;;;;4.40;1.30;;;;;;;;;;5098445;28;20044;-78
2024/01/19 02:27:31;;;;;;;10.52;1.52;;;;;;;;;;5102182;28;20047;-78
2024/01/19 02:30:01;;;;;;;4.55;1.20;;;;;;;;;;5072540;28;20056;-78
2024/01/19 02:32:31;;;;;;;3.78;1.13;;;;;;;;;;5077138;28;20048;-78
2024/01/19 02:35:02;;;;;;;3.10;1.23;;;;;;;;;;5061850;28;20056;-77
2024/01/19 02:37:33;;;;;;;3.67;1.30;;;;;;;;;;5096232;28;20413;-77
2024/01/19 02:40:05;;;;;;;4.35;1.50;;;;;;;;;;5091869;28;20047;-77
2024/01/19 02:42:35;;;;;;;5.43;1.40;;;;;;;;;;5094427;28;20429;-77
2024/01/19 02:45:07;;;;;;;4.47;1.50;;;;;;;;;;5096201;28;20044;-77
2024/01/19 02:47:38;;;;;;;6.63;1.55;;;;;;;;;;5097094;28;20040;-77
2024/01/19 02:50:10;;;;;;;2.80;1.70;;;;;;;;;;5096897;28;20051;-77
2024/01/19 02:52:40;;;;;;;3.10;1.33;;;;;;;;;;5096818;28;20051;-76
2024/01/19 02:55:11;;;;;;;4.65;1.40;;;;;;;;;;5077185;28;20051;-77
2024/01/19 02:57:42;;;;;;;3.42;1.10;;;;;;;;;;5078675;28;20055;-77
2024/01/19 03:00:12;;;;;;;6.72;1.48;;;;;;;;;;5095571;28;20051;-77
2024/01/19 03:02:44;;;;;;;2.92;1.45;;;;;;;;;;5077840;28;20051;-76
2024/01/19 03:05:16;;;;;;;10.05;1.73;;;;;;;;;;5061031;28;20078;-77
2024/01/19 03:07:47;;;;;;;5.57;1.30;;;;;;;;;;5096469;28;20048;-77
2024/01/19 03:10:18;;;;;;;2.70;1.35;;;;;;;;;;5096063;28;20051;-78
2024/01/19 03:12:48;;;;;;;7.30;1.40;;;;;;;;;;5095841;28;20494;-78
2024/01/19 03:15:19;;;;;;;4.28;1.75;;;;;;;;;;5096852;28;20054;-78
2024/01/19 03:17:50;;;;;;;5.22;1.50;;;;;;;;;;5096341;28;20051;-76
2024/01/19 03:20:20;;;;;;;5.57;1.50;;;;;;;;;;5096052;28;20040;-77
2024/01/19 03:22:50;;;;;;;6.68;1.85;;;;;;;;;;5095687;28;20075;-78
2024/01/19 03:25:20;;;;;;;4.05;1.63;;;;;;;;;;5096250;28;20048;-78
2024/01/19 03:27:50;;;;;;;6.85;1.48;;;;;;;;;;5078688;28;20048;-78
2024/01/19 03:30:20;;;;;;;6.18;1.48;;;;;;;;;;5095833;28;20044;-77
2024/01/19 03:32:50;;;;;;;4.78;1.42;;;;;;;;;;5096460;28;20401;-76
2024/01/19 03:35:22;;;;;;;4.40;1.30;;;;;;;;;;5076965;28;20052;-78
2024/01/19 03:37:52;;;;;;;4.43;1.30;;;;;;;;;;5095742;28;20051;-78
2024/01/19 03:40:23;;;;;;;9.63;1.50;;;;;;;;;;5095551;28;20040;-76
2024/01/19 03:42:54;;;;;;;4.85;1.58;;;;;;;;;;5092268;28;20044;-78
2024/01/19 03:45:24;;;;;;;7.30;2.00;;;;;;;;;;5075471;28;20041;-77
2024/01/19 03:47:56;;;;;;;6.43;1.45;;;;;;;;;;5093643;28;20040;-76
2024/01/19 03:50:27;;;;;;;4.80;1.58;;;;;;;;;;5075093;28;20494;-77
2024/01/19 03:52:58;;;;;;;5.22;1.50;;;;;;;;;;5093076;28;20431;-76
2024/01/19 03:55:28;;;;;;;5.95;1.83;;;;;;;;;;5092815;28;20036;-77
2024/01/19 03:57:58;;;;;;;3.35;1.30;;;;;;;;;;5094034;28;20115;-77
2024/01/19 04:00:27;;;;;;;6.18;1.80;;;;;;;;;;5095000;28;20059;-76
2024/01/19 04:02:58;;;;;;;9.75;1.65;;;;;;;;;;5095124;28;20036;-77
2024/01/19 04:05:30;;;;;;;7.32;1.73;;;;;;;;;;5076451;28;20071;-77
2024/01/19 04:08:00;;;;;;;7.57;1.60;;;;;;;;;;5074822;28;20052;-77
2024/01/19 04:10:30;;;;;;;5.78;1.52;;;;;;;;;;5095114;28;20067;-77
2024/01/19 04:13:00;;;;;;;8.88;2.28;;;;;;;;;;5096498;28;20071;-77
2024/01/19 04:15:31;;;;;;;3.88;1.77;;;;;;;;;;5096036;28;20036;-78
2024/01/19 04:18:01;;;;;;;7.68;1.77;;;;;;;;;;5095894;28;20059;-77
2024/01/19 04:20:32;;;;;;;8.05;1.73;;;;;;;;;;5079846;28;20058;-78
2024/01/19 04:23:03;;;;;;;5.40;1.65;;;;;;;;;;5106067;28;20078;-78
2024/01/19 04:25:34;;;;;;;5.55;1.83;;;;;;;;;;5105907;28;20052;-77
2024/01/19 04:28:04;;;;;;;4.47;1.73;;;;;;;;;;5107052;28;20044;-77
2024/01/19 04:30:34;;;;;;;5.20;1.80;;;;;;;;;;5099946;28;20413;-77
2024/01/19 04:33:04;;;;;;;4.55;1.75;;;;;;;;;;5090042;28;20453;-77
2024/01/19 04:35:34;;;;;;;6.80;2.03;;;;;;;;;;5092434;28;20040;-78
2024/01/19 04:38:06;;;;;;;4.38;1.90;;;;;;;;;;5074470;28;20052;-78
2024/01/19 04:40:36;;;;;;;4.78;1.80;;;;;;;;;;5092353;28;20550;-77
2024/01/19 04:43:06;;;;;;;5.63;2.33;;;;;;;;;;5073839;28;20402;-78
2024/01/19 04:45:36;;;;;;;9.93;2.40;;;;;;;;;;5092446;28;20048;-78
2024/01/19 04:48:06;;;;;;;7.93;1.70;;;;;;;;;;5074443;28;20044;-77
2024/01/19 04:50:38;;;;;;;5.57;1.70;;;;;;;;;;5094771;28;20155;-78
2024/01/19 04:53:09;;;;;;;6.50;1.90;;;;;;;;;;5093946;28;20394;-78
2024/01/19 04:55:39;;;;;;;3.45;1.70;;;;;;;;;;5093843;28;20150;-78
2024/01/19 04:58:09;;;;;;;7.85;2.00;;;;;;;;;;5094219;28;20406;-78
2024/01/19 05:00:39;;;;;;;3.83;2.10;;;;;;;;;;5076120;28;20056;-77
2024/01/19 05:03:09;;;;;;;5.35;1.83;;;;;;;;;;5093980;28;20044;-77
2024/01/19 05:05:39;;;;;;;7.60;2.47;;;;;;;;;;5094378;28;20044;-77
2024/01/19 05:08:10;;;;;;;3.78;1.77;;;;;;;;;;5093692;28;20055;-78
2024/01/19 05:10:40;;;;;;;6.45;2.42;;;;;;;;;;5094663;28;20050;-77
2024/01/19 05:13:10;;;;;;;4.82;2.03;;;;;;;;;;5096779;28;20047;-77
2024/01/19 05:15:41;;;;;;;8.13;1.75;;;;;;;;;;5093723;28;20040;-78
2024/01/19 05:18:11;;;;;;;5.72;2.05;;;;;;;;;;5093705;28;20431;-77
2024/01/19 05:20:42;;;;;;;9.85;2.22;;;;;;;;;;5093195;28;20047;-77
2024/01/19 05:23:12;;;;;;;6.28;2.33;;;;;;;;;;5093670;28;20513;-77
2024/01/19 05:25:42;;;;;;;9.85;2.58;;;;;;;;;;5092666;28;20052;-77
2024/01/19 05:28:12;;;;;;;5.57;1.92;;;;;;;;;;5094065;28;20048;-77
2024/01/19 05:30:42;;;;;;;6.90;1.92;;;;;;;;;;5093382;28;20375;-77
2024/01/19 05:33:14;;;;;;;8.82;2.10;;;;;;;;;;5092341;28;20052;-77
2024/01/19 05:35:44;;;;;;;9.07;2.30;;;;;;;;;;5094028;28;20066;-76
2024/01/19 05:38:14;;;;;;;6.47;1.92;;;;;;;;;;5093268;28;20043;-78
2024/01/19 05:40:44;;;;;;;6.63;1.92;;;;;;;;;;5094090;28;20044;-77
2024/01/19 05:43:15;;;;;;;8.88;2.40;;;;;;;;;;5093036;28;20500;-77
2024/01/19 05:45:45;;;;;;;8.35;2.25;;;;;;;;;;5093471;28;20048;-77
2024/01/19 05:48:15;;;;;;;12.30;2.20;;;;;;;;;;5093857;28;20044;-77
2024/01/19 05:50:45;;;;;;;7.35;2.10;;;;;;;;;;5092879;28;20051;-76
2024/01/19 05:53:15;;;;;;;5.18;2.67;;;;;;;;;;5092978;28;20044;-77
2024/01/19 05:55:44;;;;;;;9.75;2.33;;;;;;;;;;5091377;28;20052;-77
2024/01/19 06:01:36;;;;;;;5.15;2.22;;;;;;;;;;5074183;28;20055;-76
2024/01/19 06:04:06;;;;;;;4.07;1.98;;;;;;;;;;5072952;28;20045;-76
2024/01/19 06:06:36;;;;;;;10.25;2.30;;;;;;;;;;5072544;28;20475;-76
2024/01/19 06:09:08;;;;;;;8.93;2.53;;;;;;;;;;5072904;28;20037;-77
2024/01/19 06:11:38;;;;;;;7.85;2.20;;;;;;;;;;5054640;28;20055;-77
2024/01/19 06:14:08;;;;;;;11.48;2.55;;;;;;;;;;5072621;28;20051;-78
2024/01/19 06:16:39;;;;;;;7.50;2.03;;;;;;;;;;5042374;28;20053;-77
2024/01/19 06:19:08;;;;;;;4.43;2.40;;;;;;;;;;5062303;28;20517;-77
2024/01/19 06:21:43;;;;;;;4.15;2.28;;;;;;;;;;5063746;28;20049;-77
2024/01/19 06:24:15;;;;;;;12.13;2.42;;;;;;;;;;5047806;28;20122;-77
2024/01/19 06:26:46;;;;;;;6.63;2.40;;;;;;;;;;5052502;28;20071;-77
2024/01/19 06:29:16;;;;;;;4.75;2.35;;;;;;;;;;5059748;28;20048;-76
2024/01/19 06:31:47;;;;;;;9.35;2.17;;;;;;;;;;5066291;28;20513;-77
2024/01/19 06:34:19;;;;;;;9.98;3.00;;;;;;;;;;5072627;28;20075;-77
2024/01/19 06:36:49;;;;;;;4.53;2.65;;;;;;;;;;5072278;28;20064;-77
2024/01/19 06:39:19;;;;;;;5.60;2.55;;;;;;;;;;5072594;28;20059;-77
2024/01/19 06:41:49;;;;;;;7.97;2.20;;;;;;;;;;5072792;28;20503;-77
2024/01/19 06:44:19;;;;;;;6.05;2.08;;;;;;;;;;5053567;28;20490;-77
2024/01/19 06:46:49;;;;;;;10.85;2.20;;;;;;;;;;5054800;28;20055;-77
2024/01/19 06:49:19;;;;;;;6.40;2.30;;;;;;;;;;5055275;28;20040;-77
2024/01/19 06:51:49;;;;;;;7.15;2.72;;;;;;;;;;5072383;28;20072;-77
2024/01/19 06:54:19;;;;;;;7.45;2.70;;;;;;;;;;5072709;28;20388;-77
2024/01/19 06:56:48;;;;;;;11.45;2.90;;;;;;;;;;5054001;28;20052;-76
2024/01/19 06:59:18;;;;;;;5.50;2.33;;;;;;;;;;5053810;28;20421;-77
2024/01/19 07:01:48;;;;;;;8.23;3.53;;;;;;;;;;5087124;28;20052;-76
2024/01/19 07:04:19;;;;;;;5.60;2.60;;;;;;;;;;5073953;28;20052;-77
2024/01/19 07:06:49;;;;;;;7.25;2.67;;;;;;;;;;5068613;28;20045;-77
2024/01/19 07:09:20;;;;;;;7.68;2.75;;;;;;;;;;5036409;28;20410;-77
2024/01/19 07:11:51;;;;;;;6.97;2.90;;;;;;;;;;5068639;28;20410;-77
2024/01/19 07:14:20;;;;;;;7.13;2.88;;;;;;;;;;5071383;28;20394;-77
2024/01/19 07:16:51;;;;;;;8.27;2.63;;;;;;;;;;5068832;28;20052;-76
2024/01/19 07:19:21;;;;;;;9.07;2.25;;;;;;;;;;5059244;28;20367;-77
2024/01/19 07:21:51;;;;;;;7.97;2.83;;;;;;;;;;5075491;28;20494;-77
2024/01/19 07:24:21;;;;;;;5.32;2.47;;;;;;;;;;5064821;28;20421;-77
2024/01/19 07:26:52;;;;;;;6.68;3.00;;;;;;;;;;5058222;28;20391;-77
2024/01/19 07:29:22;;;;;;;6.47;2.60;;;;;;;;;;5075491;28;20040;-77
2024/01/19 07:31:52;;;;;;;7.65;2.92;;;;;;;;;;5075548;28;20151;-76
2024/01/19 07:34:22;;;;;;;7.63;2.30;;;;;;;;;;5075954;28;20055;-77
2024/01/19 07:36:54;;;;;;;7.57;2.70;;;;;;;;;;5075800;28;20036;-77
2024/01/19 07:39:24;;;;;;;9.07;2.63;;;;;;;;;;5075593;28;20044;-77
2024/01/19 07:41:54;;;;;;;7.22;3.03;;;;;;;;;;5075603;28;20059;-77
2024/01/19 07:44:24;;;;;;;11.10;2.60;;;;;;;;;;5075635;28;20047;-77
2024/01/19 07:46:54;;;;;;;7.45;2.30;;;;;;;;;;5076079;28;20380;-76
2024/01/19 07:49:24;;;;;;;6.25;2.78;;;;;;;;;;5057503;28;20051;-76
2024/01/19 07:51:54;;;;;;;4.50;2.70;;;;;;;;;;5075125;28;20047;-77
2024/01/19 07:54:25;;;;;;;6.60;2.60;;;;;;;;;;5075562;28;20395;-78
2024/01/19 07:56:55;;;;;;;9.43;3.00;;;;;;;;;;5057334;28;20048;-76
2024/01/19 07:59:27;;;;;;;9.52;3.03;;;;;;;;;;5074883;28;20041;-77
2024/01/19 08:01:58;;;;;;;7.55;2.63;;;;;;;;;;5074622;28;20072;-77
2024/01/19 08:04:30;;;;;;;6.07;2.83;;;;;;;;;;5068420;28;20367;-87
2024/01/19 08:07:00;;;;;;;12.25;2.92;;;;;;;;;;5074516;28;20051;-87
2024/01/19 08:09:30;;;;;;;5.68;2.53;;;;;;;;;;5092065;28;20044;-88
2024/01/19 08:12:02;;;;;;;7.05;2.70;;;;;;;;;;5074940;28;20055;-86
2024/01/19 08:14:33;;;;;;;11.80;2.65;;;;;;;;;;5057520;28;20059;-87
2024/01/19 08:17:04;;;;;;;10.75;2.88;;;;;;;;;;5057775;28;20051;-87
2024/01/19 08:19:35;;;;;;;6.65;2.63;;;;;;;;;;5093411;28;20048;-87
2024/01/19 08:22:06;;;;;;;5.72;2.60;;;;;;;;;;5056863;28;20063;-87
2024/01/19 08:24:38;;;;;;;8.60;2.90;;;;;;;;;;5057111;28;20048;-88
2024/01/19 08:27:08;;;;;;;9.00;2.58;;;;;;;;;;5056525;28;20075;-87
2024/01/19 08:29:45;;;;;;;10.45;3.10;;;;;;;;;;5073994;28;20048;-88
2024/01/19 08:32:17;;;;;;;9.52;2.65;;;;;;;;;;5056061;28;20051;-86
2024/01/19 08:34:47;;;;;;;5.82;2.58;;;;;;;;;;5073889;28;20708;-89
2024/01/19 08:37:18;;;;;;;7.57;2.50;;;;;;;;;;5060047;28;20048;-90
2024/01/19 08:39:47;;;;;;;6.75;2.42;;;;;;;;;;5076415;28;20059;-87
2024/01/19 08:42:19;;;;;;;11.18;3.15;;;;;;;;;;5059107;28;20048;-89
2024/01/19 08:44:50;;;;;;;6.28;2.50;;;;;;;;;;5059769;28;20063;-88
2024/01/19 08:47:20;;;;;;;8.20;2.80;;;;;;;;;;5076417;28;20529;-87
2024/01/19 08:49:50;;;;;;;4.65;2.42;;;;;;;;;;5059209;28;20063;-90
2024/01/19 08:52:20;;;;;;;7.38;3.13;;;;;;;;;;5059200;28;20059;-87
2024/01/19 08:54:52;;;;;;;8.25;2.58;;;;;;;;;;5075759;28;20437;-88
2024/01/19 08:57:23;;;;;;;8.13;2.63;;;;;;;;;;5059425;28;20055;-89
2024/01/19 08:59:54;;;;;;;7.93;2.72;;;;;;;;;;5076533;28;20067;-88
2024/01/19 09:02:24;;;;;;;6.32;2.60;;;;;;;;;;5059564;28;20059;-87
2024/01/19 09:04:57;;;;;;;10.23;2.72;;;;;;;;;;5076136;28;20048;-88
2024/01/19 09:07:30;;;;;;;7.47;2.40;;;;;;;;;;5059793;28;20517;-88
2024/01/19 09:10:02;;;;;;;8.90;2.53;;;;;;;;;;5077229;28;20052;-88
2024/01/19 09:12:34;;;;;;;5.25;2.50;;;;;;;;;;5059216;28;20048;-88
2024/01/19 09:15:05;;;;;;;7.22;2.90;;;;;;;;;;5075375;28;20482;-89
2024/01/19 09:17:37;;;;;;;10.18;3.00;;;;;;;;;;5075462;28;20052;-88
2024/01/19 09:20:10;;;;;;;7.47;2.42;;;;;;;;;;5058770;28;20048;-90
2024/01/19 09:22:41;;;;;;;5.05;2.63;;;;;;;;;;5076596;28;20044;-90
2024/01/19 09:25:12;;;;;;;12.07;2.40;;;;;;;;;;5075337;28;20058;-88
2024/01/19 09:27:43;;;;;;;6.25;2.42;;;;;;;;;;5076563;28;20425;-88
2024/01/19 09:30:16;;;;;;;5.15;2.60;;;;;;;;;;5059082;28;20051;-89
2024/01/19 09:32:46;;;;;;;6.32;2.40;;;;;;;;;;5075653;28;20391;-88
2024/01/19 09:35:17;;;;;;;6.20;2.97;;;;;;;;;;5075785;28;20048;-88
2024/01/19 09:37:48;;;;;;;10.77;2.78;;;;;;;;;;5058334;28;20070;-88
2024/01/19 09:40:21;;;;;;;8.07;2.65;;;;;;;;;;5074827;28;20055;-88
2024/01/19 09:42:56;;;;;;;8.20;2.70;;;;;;;;;;5093931;28;20040;-89
2024/01/19 09:45:36;;;;;;;9.43;2.67;;;;;;;;;;5075218;28;20048;-86
2024/01/19 09:48:27;;;;;;;6.72;2.65;;;;;;;;;;5059004;28;20495;-88
2024/01/19 09:51:00;;;;;;;7.05;2.55;;;;;;;;;;5075473;28;20052;-87
2024/01/19 09:53:42;;;;;;;10.20;3.28;;;;;;;;;;5058750;28;20157;-85
2024/01/19 09:56:13;;;;;;;10.05;3.10;;;;;;;;;;5058386;28;20052;-87
2024/01/19 09:58:47;;;;;;;5.80;2.80;;;;;;;;;;5058757;28;20466;-87
2024/01/19 10:01:18;;;;;;;8.05;2.95;;;;;;;;;;5074701;28;20067;-87
2024/01/19 10:03:54;;;;;;;4.50;2.40;;;;;;;;;;5074183;28;20040;-87
2024/01/19 10:06:25;;;;;;;6.93;2.88;;;;;;;;;;5075904;28;20483;-88
2024/01/19 10:08:57;;;;;;;4.95;2.83;;;;;;;;;;5058270;28;20048;-88
2024/01/19 10:11:30;;;;;;;7.95;2.80;;;;;;;;;;5074969;28;20059;-88
2024/01/19 10:14:01;;;;;;;8.10;2.80;;;;;;;;;;5058305;28;20060;-88
2024/01/19 10:16:32;;;;;;;6.10;2.50;;;;;;;;;;5058382;28;20048;-87
2024/01/19 10:19:04;;;;;;;8.20;2.85;;;;;;;;;;5058320;28;20398;-88
2024/01/19 10:21:35;;;;;;;7.28;2.60;;;;;;;;;;5074793;28;20040;-88
2024/01/19 10:24:10;;;;;;;5.65;2.78;;;;;;;;;;5075977;28;20051;-88
2024/01/19 10:26:42;;;;;;;7.85;2.63;;;;;;;;;;5058149;28;20494;-89
2024/01/19 10:29:15;;;;;;;6.35;2.45;;;;;;;;;;5058605;28;20048;-87
2024/01/19 10:31:52;;;;;;;5.15;2.70;;;;;;;;;;5057713;28;20048;-86
2024/01/19 10:34:26;;;;;;;5.53;2.45;;;;;;;;;;5074616;28;20047;-88
2024/01/19 10:36:58;;;;;;;5.07;2.58;;;;;;;;;;5075995;28;20051;-87
2024/01/19 10:39:29;;;;;;;8.50;2.33;;;;;;;;;;5092957;28;20040;-85
2024/01/19 10:42:07;;;;;;;4.40;2.20;;;;;;;;;;5075762;28;20059;-86
2024/01/19 10:44:38;;;;;;;8.75;2.10;;;;;;;;;;5074624;28;20040;-87
2024/01/19 10:47:09;;;;;;;3.50;2.17;;;;;;;;;;5074916;28;20059;-86
2024/01/19 10:49:39;;;;;;;5.10;2.40;;;;;;;;;;5075114;28;20502;-87
2024/01/19 10:52:10;;;;;;;5.90;2.35;;;;;;;;;;5059694;28;20518;-86
2024/01/19 10:54:49;;;;;;;6.00;2.08;;;;;;;;;;5078210;28;20048;-87
2024/01/19 10:57:23;;;;;;;6.40;2.50;;;;;;;;;;5078461;28;20055;-85
2024/01/19 10:59:55;;;;;;;4.97;2.42;;;;;;;;;;5079001;28;20044;-86
2024/01/19 11:02:27;;;;;;;4.15;2.17;;;;;;;;;;5096145;28;20044;-85
2024/01/19 11:04:58;;;;;;;5.38;2.38;;;;;;;;;;5075065;28;20494;-86
2024/01/19 11:07:29;;;;;;;7.10;2.78;;;;;;;;;;5057628;28;20053;-87
2024/01/19 11:09:59;;;;;;;7.03;2.85;;;;;;;;;;5057182;28;20055;-86
2024/01/19 11:12:33;;;;;;;3.88;2.30;;;;;;;;;;5076255;28;20048;-86
2024/01/19 11:15:09;;;;;;;6.50;2.05;;;;;;;;;;5041899;28;20040;-86
2024/01/19 11:17:41;;;;;;;6.35;2.10;;;;;;;;;;5041591;28;20048;-86
2024/01/19 11:20:12;;;;;;;7.25;2.58;;;;;;;;;;5076233;28;20047;-86
2024/01/19 11:22:43;;;;;;;6.35;2.50;;;;;;;;;;5057580;28;20056;-86
2024/01/19 11:25:18;;;;;;;6.25;2.33;;;;;;;;;;5057467;28;20059;-86
2024/01/19 11:27:57;;;;;;;5.22;2.15;;;;;;;;;;5057688;28;20059;-86
2024/01/19 11:31:06;;;;;;;6.97;2.45;;;;;;;;;;5076417;28;20045;-86
2024/01/19 11:33:37;;;;;;;7.07;2.22;;;;;;;;;;5057015;28;20055;-87
2024/01/19 11:36:09;;;;;;;3.75;2.10;;;;;;;;;;5058416;28;20040;-87
2024/01/19 11:38:45;;;;;;;4.45;2.10;;;;;;;;;;5075357;28;20045;-87
2024/01/19 11:41:33;;;;;;;4.53;2.03;;;;;;;;;;5078996;28;20047;-87
2024/01/19 11:44:05;;;;;;;4.82;1.88;;;;;;;;;;5070023;28;20052;-87
2024/01/19 11:46:47;;;;;;;4.28;2.00;;;;;;;;;;5070424;28;20040;-86
2024/01/19 11:49:30;;;;;;;7.88;2.13;;;;;;;;;;5088841;28;20048;-87
2024/01/19 11:52:22;;;;;;;5.22;2.10;;;;;;;;;;5066209;28;20052;-87
2024/01/19 11:54:52;;;;;;;4.78;2.00;;;;;;;;;;5050769;28;20055;-88
2024/01/19 11:57:25;;;;;;;5.40;2.05;;;;;;;;;;5055352;28;20475;-88
2024/01/19 11:59:56;;;;;;;5.78;2.13;;;;;;;;;;5072277;28;20410;-87
2024/01/19 12:02:33;;;;;;;5.13;2.92;;;;;;;;;;5074662;28;20521;-85
2024/01/19 12:05:10;;;;;;;3.85;2.25;;;;;;;;;;5073513;28;20094;-86
2024/01/19 12:07:42;;;;;;;4.80;1.92;;;;;;;;;;5053944;28;20041;-85
2024/01/19 12:10:20;;;;;;;4.13;2.08;;;;;;;;;;5054515;28;20041;-85
2024/01/19 12:12:51;;;;;;;5.55;2.10;;;;;;;;;;5058225;28;20052;-86
2024/01/19 12:15:23;;;;;;;7.82;2.13;;;;;;;;;;5055266;28;20051;-84
2024/01/19 12:17:54;;;;;;;;;;;;;;;;;;5055611;28;20049;-85
2024/01/19 12:20:25;;;;;;;10.10;2.13;;;;;;;;;;5052537;28;19932;-85
2024/01/19 12:22:59;;;;;;;6.43;2.22;;;;;;;;;;5036234;28;20056;-85
2024/01/19 12:25:30;;;;;;;3.00;1.75;;;;;;;;;;5035699;28;20049;-86
2024/01/19 12:28:06;;;;;;;3.83;2.35;;;;;;;;;;5052728;28;20052;-84
2024/01/19 12:30:37;;;;;;;5.32;2.25;;;;;;;;;;5053658;28;20071;-82
2024/01/19 12:33:16;;;;;;;4.47;2.33;;;;;;;;;;5035495;28;20511;-82
2024/01/19 12:36:00;;;;;;;5.60;1.98;;;;;;;;;;5051752;28;20052;-81
2024/01/19 12:38:31;;;;;;;5.80;2.10;;;;;;;;;;5053941;28;20121;-81
2024/01/19 12:41:03;;;;;;;4.55;2.20;;;;;;;;;;5053473;28;20411;-82
2024/01/19 12:43:34;;;;;;;4.80;2.03;;;;;;;;;;5053403;28;20041;-83
2024/01/19 12:46:08;;;;;;;4.85;2.10;;;;;;;;;;5052082;28;20048;-84
2024/01/19 12:48:39;;;;;;;4.18;2.13;;;;;;;;;;5054134;28;20049;-84
2024/01/19 12:51:10;;;;;;;5.53;2.38;;;;;;;;;;5073306;28;20036;-84
2024/01/19 12:53:40;;;;;;;5.22;2.40;;;;;;;;;;5054964;28;20060;-84
2024/01/19 12:56:25;;;;;;;4.97;2.00;;;;;;;;;;5056142;28;20411;-87
2024/01/19 12:59:21;;;;;;;5.00;2.30;;;;;;;;;;5056826;28;20044;-83
2024/01/19 13:01:51;;;;;;;4.47;2.33;;;;;;;;;;5022497;28;20518;-86
2024/01/19 13:04:23;;;;;;;5.10;2.33;;;;;;;;;;5036091;28;20056;-84
2024/01/19 13:06:55;;;;;;;7.55;2.40;;;;;;;;;;5053944;28;20064;-85
2024/01/19 13:09:26;;;;;;;4.88;2.42;;;;;;;;;;5053985;28;20046;-84
2024/01/19 13:12:12;;;;;;;5.97;2.30;;;;;;;;;;5035610;28;20052;-84
2024/01/19 13:14:43;;;;;;;4.30;2.53;;;;;;;;;;5019218;28;20049;-84
2024/01/19 13:17:24;;;;;;;5.53;3.05;;;;;;;;;;5051681;28;20048;-84
2024/01/19 13:19:54;;;;;;;5.28;2.45;;;;;;;;;;5035107;28;20468;-85
2024/01/19 13:22:25;;;;;;;6.43;2.47;;;;;;;;;;5034650;28;20056;-84
2024/01/19 13:24:56;;;;;;;5.53;2.17;;;;;;;;;;5036016;28;20045;-85
2024/01/19 13:27:27;;;;;;;4.53;2.22;;;;;;;;;;5035158;28;20053;-85
2024/01/19 13:29:58;;;;;;;4.65;1.70;;;;;;;;;;5035488;28;20052;-84
2024/01/19 13:32:28;;;;;;;5.97;2.30;;;;;;;;;;5018911;28;20053;-85
2024/01/19 13:34:59;;;;;;;3.63;1.92;;;;;;;;;;5035501;28;20049;-84
2024/01/19 13:37:29;;;;;;;5.15;2.28;;;;;;;;;;5019341;28;20074;-84
2024/01/19 13:39:59;;;;;;;7.85;2.42;;;;;;;;;;5053110;28;20041;-83
2024/01/19 13:42:31;;;;;;;6.20;2.50;;;;;;;;;;5033624;28;20052;-84
2024/01/19 13:45:04;;;;;;;5.47;2.13;;;;;;;;;;5052421;28;20518;-83
2024/01/19 13:47:38;;;;;;;6.15;2.17;;;;;;;;;;5036681;28;20044;-85
2024/01/19 13:50:08;;;;;;;6.95;2.50;;;;;;;;;;5052593;28;20407;-84
2024/01/19 13:53:04;;;;;;;7.72;2.40;;;;;;;;;;5035330;28;20060;-85
2024/01/19 13:55:36;;;;;;;4.40;2.20;;;;;;;;;;5018952;28;20057;-84
2024/01/19 13:58:06;;;;;;;4.15;2.13;;;;;;;;;;5052605;28;20049;-85
2024/01/19 14:00:36;;;;;;;4.78;2.33;;;;;;;;;;5039848;28;20057;-86
2024/01/19 14:03:09;;;;;;;3.88;2.25;;;;;;;;;;5053843;28;20487;-86
2024/01/19 14:05:41;;;;;;;5.35;2.35;;;;;;;;;;5054517;28;20043;-87
2024/01/19 14:08:17;;;;;;;5.93;2.63;;;;;;;;;;5089002;28;20040;-89
2024/01/19 14:10:49;;;;;;;7.38;2.55;;;;;;;;;;5078045;28;20089;-85
2024/01/19 14:13:19;;;;;;;7.82;2.40;;;;;;;;;;5053653;28;20072;-84
2024/01/19 14:15:51;;;;;;;4.80;1.85;;;;;;;;;;5037562;28;20060;-83
2024/01/19 14:18:22;;;;;;;7.60;2.60;;;;;;;;;;5072094;28;20048;-85
2024/01/19 14:20:55;;;;;;;4.75;2.60;;;;;;;;;;5053401;28;20411;-83
2024/01/19 14:23:25;;;;;;;4.63;2.10;;;;;;;;;;5072270;28;20098;-83
2024/01/19 14:25:57;;;;;;;4.53;2.33;;;;;;;;;;5053845;28;20048;-84
2024/01/19 14:28:28;;;;;;;4.47;2.58;;;;;;;;;;5057839;28;20052;-86
2024/01/19 14:30:58;;;;;;;5.78;2.40;;;;;;;;;;5041883;28;20063;-83
2024/01/19 14:33:29;;;;;;;4.90;2.63;;;;;;;;;;5057218;28;20059;-86
2024/01/19 14:36:00;;;;;;;9.30;2.28;;;;;;;;;;5059084;28;20060;-86
2024/01/19 14:38:31;;;;;;;;;;;;;;;;;;5058662;28;20048;-88
2024/01/19 14:41:04;;;;;;;2.58;1.60;;;;;;;;;;5058119;28;19943;-84
2024/01/19 14:43:35;;;;;;;2.65;1.52;;;;;;;;;;5057327;28;20060;-83
2024/01/19 14:46:05;;;;;;;9.30;1.50;;;;;;;;;;5057358;28;20498;-87
2024/01/19 14:48:37;;;;;;;2.35;1.10;;;;;;;;;;5058335;28;20063;-87
2024/01/19 14:51:08;;;;;;;4.85;1.15;;;;;;;;;;5058126;28;20059;-85
2024/01/19 14:53:40;;;;;;;2.67;1.05;;;;;;;;;;5041476;28;20044;-84
2024/01/19 14:56:12;;;;;;;3.22;0.80;;;;;;;;;;5076038;28;20391;-82
2024/01/19 14:58:43;;;;;;;2.67;0.75;;;;;;;;;;5056813;28;20045;-85
2024/01/19 15:01:13;;;;;;;5.60;1.00;;;;;;;;;;5072960;28;20048;-82
2024/01/19 15:03:43;;;;;;;2.38;1.08;;;;;;;;;;5075248;28;20512;-85
2024/01/19 15:06:17;;;;;;;3.45;1.60;;;;;;;;;;5076037;28;20051;-85
2024/01/19 15:08:48;;;;;;;4.93;1.55;;;;;;;;;;5057213;28;20507;-82
2024/01/19 15:11:18;;;;;;;3.08;1.23;;;;;;;;;;5040597;28;20052;-83
2024/01/19 15:13:48;;;;;;;3.88;1.63;;;;;;;;;;5058162;28;20071;-83